• Join FlightAware (Why Join?)
  • Login
  • US Flag 
11:44PM EST


 

Airport Tracker/Info


-or-


 

Live Flight TrackerFlight Track Log ✈ 9Y-SXM ✈ 08.05.2013 ✈ KMIA - TTPP / POS

Flight Track Log - Related Links

Times and Time Zones

All times are in EDT time to prevent confusion due to time zone crossing. See the 9Y-SXM flight status page for this flight to view local times or setup timezone preferences in your user account.

Time Position Orientation Groundspeed Altitude Reporting Facility
EDT Latitude Longitude Course Direction KTS MPH feet Rate Location/Type
03:33PM 25.7970 -80.2430 90° East 179 206 1,400  Level FlightAware
03:34PM 25.7920 -80.2300 113° Southeast 199 229 1,600 1,320 Climbing FlightAware
03:34PM 25.7790 -80.1970 114° Southeast 237 273 2,400 1,500 Climbing FlightAware
03:35PM 25.7670 -80.1670 114° Southeast 270 311 3,000 1,920 Climbing FlightAware
03:35PM 25.7520 -80.1280 113° Southeast 283 326 4,200 2,640 Climbing FlightAware
03:35PM 25.7430 -80.1070 115° Southeast 283 326 5,000 3,120 Climbing FlightAware
03:36PM 25.7310 -80.0750 113° Southeast 282 325 6,300 2,460 Climbing FlightAware
03:36PM 25.7160 -80.0330 112° Southeast 299 344 7,300 2,400 Climbing FlightAware
03:37PM 25.7090 -79.9930 101° East 303 349 8,500 2,460 Climbing FlightAware
03:37PM 25.7000 -79.9480 103° East 314 361 9,600 2,040 Climbing FlightAware
03:38PM 25.6840 -79.8830 105° East 339 390 10,900 1,680 Climbing FlightAware
03:39PM 25.6520 -79.8090 116° Southeast 373 429 12,000 1,920 Climbing FlightAware
03:39PM 25.6170 -79.7310 116° Southeast 381 438 14,000 2,640 Climbing FlightAware
03:40PM 25.5780 -79.6430 116° Southeast 390 449 16,200 2,040 Climbing FlightAware
03:41PM 25.5480 -79.5730 115° Southeast 393 452 16,900 480 Climbing FlightAware
03:42PM 25.5200 -79.5110 117° Southeast 393 452 16,900  Level FlightAware
03:42PM 25.4930 -79.4500 116° Southeast 393 452 16,900  Level FlightAware
03:43PM 25.4590 -79.3730 116° Southeast 393 452 16,900  Level FlightAware
03:44PM 25.4320 -79.3110 116° Southeast 393 452 16,900  Level FlightAware
03:44PM 25.4050 -79.2500 116° Southeast 393 452 16,900 5,460 Level FlightAware
03:45PM 25.3036 -79.0264 116° Southeast 430 495 26,600 5,280 Climbing Miami Center
03:46PM 25.2447 -78.9081 119° Southeast 441 507 28,100 1,260 Climbing Miami Center
03:47PM 25.1900 -78.7764 115° Southeast 448 516 29,200 1,020 Climbing Miami Center
03:48PM 25.1292 -78.6422 117° Southeast 467 537 30,200 960 Climbing Miami Center
03:49PM 25.0681 -78.5039 116° Southeast 480 552 31,200 1,200 Climbing Miami Center
03:50PM 25.0047 -78.3678 117° Southeast 491 565 32,600 1,200 Climbing Miami Center
03:51PM 24.9411 -78.2339 118° Southeast 496 571 33,700 1,320 Climbing Miami Center
03:52PM 24.8775 -78.0958 117° Southeast 496 571 35,300 1,500 Climbing Miami Center
03:53PM 24.8139 -77.9647 118° Southeast 491 565 36,800 840 Climbing Miami Center
03:54PM 24.7542 -77.8361 117° Southeast 485 558 37,000 60 Climbing Miami Center
03:55PM 24.6944 -77.7053 117° Southeast 480 552 37,000  Level Miami Center
03:56PM 24.6344 -77.5744 117° Southeast 480 552 37,000  Level Miami Center
03:57PM 24.5744 -77.4439 117° Southeast 480 552 37,000  Level Miami Center
03:58PM 24.5122 -77.3156 118° Southeast 474 545 37,000  Level Miami Center
03:59PM 24.4539 -77.1853 116° Southeast 474 545 37,000  Level Miami Center
04:00PM 24.3936 -77.0575 117° Southeast 469 540 37,000  Level Miami Center
04:01PM 24.3353 -76.9294 117° Southeast 469 540 37,000  Level Miami Center
04:02PM 24.2725 -76.7994 118° Southeast 469 540 37,000  Level Miami Center
04:03PM 24.2139 -76.6719 117° Southeast 469 540 37,000  Level Miami Center
04:04PM 24.1636 -76.5628 117° Southeast 456 525 37,000  Level Miami Center
04:05PM 24.1025 -76.4331 117° Southeast 451 519 37,000  Level Miami Center
04:06PM 24.0414 -76.3036 117° Southeast 464 534 37,000  Level Miami Center
04:07PM 23.9803 -76.1767 118° Southeast 469 540 37,000  Level Miami Center
04:08PM 23.9128 -76.0361 118° Southeast 469 540 37,000  Level Miami Center
04:09PM 23.8514 -75.9069 117° Southeast 469 540 37,000  Level Miami Center
04:10PM 23.7900 -75.7781 117° Southeast 469 540 37,000  Level Miami Center
04:11PM 23.7283 -75.6469 119° Southeast 469 540 37,000  Level Miami Center
04:12PM 23.7285 -75.6568 119° Southeast  Level FlightAware Approximate
04:12PM 23.6644 -75.5181 118° Southeast 469 540 37,000  Level Miami Center
04:13PM 23.6006 -75.3872 118° Southeast 474 545 37,000  Level Miami Center
04:14PM 23.5367 -75.2611 119° Southeast 474 545 37,000  Level Miami Center
04:15PM 23.4744 -75.1328 118° Southeast 474 545 37,000  Level Miami Center
04:17PM 23.4071 -75.0157 122° Southeast  Level FlightAware Approximate
04:17PM 23.3503 -74.8811 122° Southeast 468 539 37,000  Level Miami Center
04:18PM 23.2878 -74.7531 118° Southeast 468 539 37,000  Level Miami Center
04:19PM 23.2256 -74.6253 118° Southeast 468 539 37,000  Level Miami Center
04:20PM 23.1608 -74.5022 120° Southeast 468 539 37,000  Level Miami Center
04:21PM 23.0983 -74.3769 118° Southeast 468 539 37,000  Level Miami Center
04:22PM 23.0378 -74.2517 118° Southeast 468 539 37,000  Level Miami Center
04:23PM 22.9750 -74.1289 119° Southeast 468 539 37,000  Level Miami Center
04:24PM 22.9119 -74.0039 119° Southeast 468 539 37,000  Level Miami Center
04:25PM 22.8578 -73.8969 119° Southeast 463 533 37,000  Level Miami Center
04:26PM 22.7906 -73.7744 121° Southeast 463 533 37,000  Level Miami Center
04:27PM 22.7378 -73.6475 114° Southeast 463 533 37,000  Level Miami Center
04:28PM 22.6661 -73.5256 122° Southeast 468 539 37,000  Level Miami Center
04:29PM 22.6050 -73.3989 118° Southeast 473 544 37,000  Level Miami Center
04:30PM 22.5414 -73.2747 119° Southeast 473 544 37,000  Level Miami Center
04:31PM 22.4800 -73.1528 119° Southeast 473 544 37,000  Level Miami Center
04:32PM 22.4164 -73.0289 119° Southeast 473 544 37,000  Level Miami Center
04:33PM 22.3506 -72.9050 120° Southeast 473 544 37,000  Level Miami Center
04:34PM 22.2867 -72.7814 119° Southeast 473 544 37,000  Level Miami Center
04:35PM 22.2228 -72.6578 119° Southeast 468 539 37,000  Level Miami Center
04:36PM 22.1608 -72.5342 118° Southeast 468 539 37,000  Level Miami Center
04:37PM 22.0989 -72.4131 119° Southeast 468 539 37,000  Level Miami Center
04:38PM 22.0369 -72.2897 118° Southeast 468 539 37,000  Level Miami Center
04:39PM 21.9706 -72.1644 120° Southeast 468 539 37,000  Level Miami Center
04:40PM 21.9103 -72.0414 118° Southeast 468 539 37,000  Level Miami Center
04:41PM 21.8436 -71.9186 120° Southeast 468 539 37,000  Level Miami Center
04:42PM 21.7811 -71.7936 118° Southeast 468 539 37,000  Level Miami Center
04:43PM 21.7167 -71.6711 119° Southeast 468 539 37,000  Level Miami Center
04:44PM 21.7188 -71.6747 119° Southeast  Level FlightAware Approximate
04:44PM 21.6561 -71.5531 119° Southeast 468 539 37,000  Level Miami Center
04:45PM 21.5936 -71.4350 120° Southeast 468 539 37,000  Level Miami Center
04:46PM 21.5331 -71.3147 118° Southeast 463 533 37,000  Level Miami Center
04:47PM 21.4594 -71.1819 121° Southeast 463 533 37,000  Level Miami Center
04:49PM 21.3888 -71.0691 127° Southeast  Level FlightAware Approximate
04:49PM 21.3064 -70.9458 127° Southeast 452 520 37,000  Level Miami Center
04:50PM 21.2292 -70.8358 127° Southeast 458 527 37,000  Level Miami Center
04:51PM 21.1519 -70.7281 128° Southeast 463 533 37,000  Level Miami Center
04:52PM 21.0744 -70.6161 127° Southeast 468 539 37,000  Level Miami Center
04:53PM 20.9972 -70.5086 128° Southeast 468 539 37,000  Level Miami Center
04:54PM 20.9217 -70.3992 126° Southeast 468 539 37,000  Level Miami Center
04:55PM 20.8564 -70.2825 121° Southeast 468 539 37,000  Level Miami Center
04:56PM 20.8378 -70.1414 98° East 458 527 37,000  Level Miami Center
04:57PM 20.8131 -70.0053 101° East 458 527 37,000  Level Miami Center
04:58PM 20.7925 -69.8689 99° East 463 533 37,000  Level Miami Center
05:04PM 20.5570 -69.0760 99° East 459 528 37,000  Level FlightAware
05:05PM 20.5300 -69.0400 129° Southeast 442 509 37,000  Level FlightAware
05:06PM 20.4720 -68.9810 136° Southeast 442 509 37,000  Level FlightAware
05:06PM 20.4220 -68.9300 136° Southeast 442 509 37,000  Level FlightAware
05:07PM 20.3590 -68.8650 136° Southeast 442 509 37,000  Level FlightAware
05:08PM 20.3090 -68.8140 136° Southeast 442 509 37,000  Level FlightAware
05:08PM 20.2590 -68.7620 136° Southeast 442 509 37,000  Level FlightAware
05:09PM 20.2090 -68.7110 136° Southeast 442 509 37,000  Level FlightAware
05:10PM 20.1470 -68.6460 135° Southeast 442 509 37,000  Level FlightAware
05:11PM 20.0970 -68.5950 136° Southeast 442 509 37,000  Level FlightAware
05:11PM 20.0470 -68.5430 136° Southeast 442 509 37,000  Level FlightAware
05:12PM 19.9970 -68.4920 136° Southeast 442 509 37,000  Level FlightAware
05:13PM 19.9470 -68.4410 136° Southeast 442 509 37,000  Level FlightAware
05:13PM 19.8970 -68.3890 136° Southeast 442 509 37,000  Level FlightAware
05:14PM 19.8340 -68.3250 136° Southeast 442 509 37,000  Level FlightAware
05:15PM 19.7840 -68.2740 136° Southeast 442 509 37,000  Level FlightAware
05:16PM 19.4333 -68.3500 136° Southeast 470 541 37,000  Level San Juan Center
05:17PM 19.3500 -68.2500 131° Southeast 480 552 37,000  Level San Juan Center
05:18PM 19.2667 -68.1333 127° Southeast 470 541 37,000  Level San Juan Center
05:19PM 19.1833 -68.0333 131° Southeast 470 541 37,000  Level San Juan Center
05:20PM 19.1167 -67.9000 118° Southeast 490 564 37,000  Level San Juan Center
05:25PM 18.7850 -67.1710 118° Southeast 473 544 37,000  Level FlightAware
05:26PM 18.7310 -67.0980 128° Southeast 473 544 37,000  Level FlightAware
05:27PM 18.6440 -67.0060 135° Southeast 466 536 37,000  Level FlightAware
05:28PM 18.5910 -66.9530 137° Southeast 466 536 37,000  Level FlightAware
05:28PM 18.4990 -66.8930 148° Southeast 463 533 37,000  Level FlightAware
05:29PM 18.4190 -66.8390 147° Southeast 451 519 37,000  Level FlightAware
05:30PM 18.3510 -66.7860 144° Southeast 466 536 37,000  Level FlightAware
05:30PM 18.2820 -66.7290 142° Southeast 465 535 37,000  Level FlightAware
05:31PM 18.1960 -66.6600 143° Southeast 463 533 37,000  Level FlightAware
05:32PM 18.1290 -66.6060 143° Southeast 462 532 37,000  Level FlightAware
05:32PM 18.0600 -66.5510 143° Southeast 462 532 37,000  Level FlightAware
05:33PM 17.9870 -66.4920 142° Southeast 461 531 37,000  Level FlightAware
05:34PM 17.9300 -66.4460 142° Southeast 462 532 37,000  Level FlightAware
05:35PM 17.8500 -66.3820 143° Southeast 462 532 37,000  Level FlightAware
05:35PM 17.7720 -66.3200 143° Southeast 463 533 37,000  Level FlightAware
05:36PM 17.7060 -66.2670 143° Southeast 463 533 37,000  Level FlightAware
05:37PM 17.6300 -66.2070 143° Southeast 464 534 37,000  Level FlightAware
05:37PM 17.5610 -66.1520 143° Southeast 463 533 37,000  Level FlightAware
05:38PM 17.4940 -66.0980 142° Southeast 463 533 37,000  Level FlightAware
05:39PM 17.4150 -66.0350 143° Southeast 462 532 37,000  Level FlightAware
05:39PM 17.3630 -65.9930 142° Southeast 462 532 37,000  Level FlightAware
05:40PM 17.2920 -65.9350 142° Southeast 462 532 37,000  Level FlightAware
05:41PM 17.2350 -65.8880 142° Southeast 462 532 37,000  Level FlightAware
05:42PM 17.1770 -65.8410 142° Southeast 462 532 37,000  Level FlightAware
05:42PM 17.0710 -65.7620 145° Southeast 461 531 37,000  Level FlightAware
05:43PM 17.0140 -65.7150 142° Southeast 461 531 37,000  Level FlightAware
05:44PM 16.9430 -65.6570 142° Southeast 461 531 37,000  Level FlightAware
05:44PM 16.8860 -65.6100 142° Southeast 461 531 37,000  Level FlightAware
05:45PM 16.8280 -65.5640 143° Southeast 461 531 37,000  Level FlightAware
05:46PM 16.7710 -65.5170 142° Southeast 461 531 37,000  Level FlightAware
05:46PM 16.7140 -65.4700 142° Southeast 461 531 37,000  Level FlightAware
05:47PM 16.6430 -65.4120 142° Southeast 461 531 37,000  Level FlightAware
05:48PM 16.5860 -65.3650 142° Southeast 461 531 37,000  Level FlightAware
05:49PM 16.5280 -65.3190 143° Southeast 461 531 37,000  Level FlightAware
05:49PM 16.4710 -65.2720 142° Southeast 461 531 37,000  Level FlightAware
05:50PM 16.4140 -65.2260 142° Southeast 461 531 37,000  Level FlightAware
05:51PM 16.3570 -65.1790 142° Southeast 461 531 37,000  Level FlightAware
05:51PM 16.2860 -65.1210 142° Southeast 461 531 37,000  Level FlightAware
05:52PM 16.2570 -65.0980 143° Southeast 461 531 37,000  Level FlightAware
05:53PM 15.9833 -64.9167 143° Southeast 450 518 37,000  Level San Juan Center
05:54PM 15.8833 -64.8333 141° Southeast 460 529 37,000  Level San Juan Center
05:55PM 15.8000 -64.7500 136° Southeast 460 529 37,000  Level San Juan Center
06:01PM 15.1680 -64.2760 136° Southeast 457 526 37,000  Level FlightAware
06:02PM 15.1010 -64.2240 143° Southeast 455 524 37,000  Level FlightAware
06:02PM 15.0270 -64.1660 143° Southeast 455 524 37,000  Level FlightAware
06:03PM 14.9580 -64.1220 148° Southeast 450 518 37,000  Level FlightAware
06:04PM 14.8830 -64.0770 150° Southeast 451 519 37,000  Level FlightAware
06:04PM 14.8050 -64.0320 151° Southeast 451 519 37,000  Level FlightAware
06:05PM 14.7320 -63.9890 150° Southeast 451 519 37,000  Level FlightAware
06:06PM 14.6540 -63.9430 150° Southeast 451 519 37,000  Level FlightAware
06:06PM 14.5770 -63.8980 151° Southeast 451 519 37,000  Level FlightAware
06:07PM 14.4770 -63.8400 151° Southeast 450 518 37,000  Level FlightAware
06:08PM 14.3910 -63.7900 151° Southeast 449 517 37,000  Level FlightAware
06:09PM 14.3210 -63.7490 150° Southeast 448 516 37,000  Level FlightAware
06:09PM 14.2510 -63.7080 150° Southeast 448 516 37,000  Level FlightAware
06:10PM 14.1730 -63.6630 151° Southeast 448 516 37,000  Level FlightAware
06:11PM 14.0900 -63.6150 151° Southeast 448 516 37,000  Level FlightAware
06:12PM 14.0230 -63.5760 151° Southeast 448 516 37,000  Level FlightAware
06:12PM 13.9410 -63.5280 150° Southeast 448 516 37,000  Level FlightAware
06:13PM 13.8680 -63.4860 151° Southeast 446 513 37,000  Level FlightAware
06:14PM 13.7860 -63.4380 150° Southeast 444 511 37,000  Level FlightAware
06:14PM 13.7280 -63.4040 150° Southeast 443 510 37,000  Level FlightAware
06:15PM 13.6220 -63.3430 151° Southeast 442 509 37,000  Level FlightAware
06:16PM 13.5380 -63.2940 150° Southeast 443 510 37,000  Level FlightAware
06:17PM 13.4700 -63.2550 151° Southeast 444 511 37,000  Level FlightAware
06:17PM 13.3890 -63.2080 151° Southeast 445 512 37,000  Level FlightAware
06:18PM 13.3190 -63.1680 151° Southeast 445 512 37,000  Level FlightAware
06:19PM 13.2500 -63.1280 151° Southeast 443 510 37,000  Level FlightAware
06:20PM 13.1540 -63.0730 151° Southeast 443 510 37,000  Level FlightAware
06:20PM 13.0890 -63.0350 150° Southeast 443 510 37,000  Level FlightAware
06:21PM 13.0110 -62.9900 151° Southeast 444 511 37,000  Level FlightAware
06:22PM 12.9290 -62.9430 151° Southeast 445 512 37,000  Level FlightAware
06:22PM 12.8560 -62.9010 151° Southeast 446 513 37,000  Level FlightAware
06:23PM 12.7870 -62.8620 151° Southeast 447 514 37,000  Level FlightAware
06:24PM 12.7020 -62.8130 151° Southeast 447 514 37,000  Level FlightAware
06:24PM 12.6310 -62.7720 151° Southeast 448 516 37,000  Level FlightAware
06:25PM 12.5480 -62.7250 151° Southeast 449 517 37,000  Level FlightAware
06:26PM 12.4810 -62.6850 150° Southeast 449 517 37,000  Level FlightAware
06:26PM 12.4090 -62.6450 152° Southeast 447 514 37,000  Level FlightAware
06:27PM 12.3220 -62.5940 150° Southeast 446 513 37,000  Level FlightAware
06:28PM 12.2610 -62.5580 150° Southeast 446 513 37,000  Level FlightAware
06:29PM 12.2000 -62.5220 150° Southeast 446 513 37,000  Level FlightAware
06:31PM 12.0449 -62.3464 132° Southeast  Level FlightAware Approximate
06:32PM 11.9435 -62.2754 145° Southeast  Level Estimated
06:33PM 11.8421 -62.2044 147° Southeast  Level Estimated
06:34PM 11.7407 -62.1336 150° Southeast  Level Estimated
06:35PM 11.6393 -62.0627 150° Southeast  Level Estimated
06:36PM 11.5273 -62.0112 156° South  Level FlightAware Approximate
06:37PM 11.4272 -61.9385 149° Southeast  Level Estimated
06:38PM 11.3196 -61.8779 151° Southeast  Level FlightAware Approximate
06:39PM 11.2121 -61.8173 151° Southeast  Level FlightAware Approximate
06:40PM 11.1045 -61.7567 151° Southeast  Level FlightAware Approximate
06:41PM 11.0091 -61.6779 151° Southeast  Level Estimated
06:42PM 10.9136 -61.5992 152° Southeast  Level Estimated
06:43PM 10.7960 -61.5629 163° South  Level FlightAware Approximate
06:44PM 10.7136 -61.4701 147° Southeast  Level Estimated
06:45PM 10.5936 -61.4431 168° South  Level FlightAware Approximate
06:46PM 10.5954 -61.3372 154° Southeast  Level Estimated
06:47PM 10.5954 -61.3372 11° North  Level Estimated
06:48PM 10.5954 -61.3372 11° North  Level Estimated
06:49PM 10.5954 -61.3372 11° North  Level Estimated
06:50PM 10.5954 -61.3372 11° North  Level Estimated
06:51PM 10.5954 -61.3372 11° North  Level Estimated
06:52PM 10.5954 -61.3372 11° North  Level Estimated
06:53PM 10.5954 -61.3372 11° North  Level Estimated
06:54PM 10.5954 -61.3372 11° North  Level Estimated
06:55PM 10.5954 -61.3372 11° North  Level Estimated
06:56PM 10.5954 -61.3372 11° North  Level Estimated
06:57PM 10.5954 -61.3372 11° North  Level Estimated
06:58PM 10.5954 -61.3372 11° North  Level Estimated
06:59PM 10.5954 -61.3372 11° North  Level Estimated
07:00PM 10.5954 -61.3372 11° North  Level Estimated
07:01PM 10.5954 -61.3372 11° North  Level Estimated
07:02PM 10.5954 -61.3372 11° North  Level Estimated
07:03PM 10.5954 -61.3372 11° North  Level Estimated
07:04PM 10.5954 -61.3372 11° North  Level Estimated
07:05PM 10.5954 -61.3372 11° North  Level Estimated
07:06PM 10.5954 -61.3372 11° North  Level Estimated
07:07PM 10.5954 -61.3372 11° North  Level Estimated
07:08PM 10.5954 -61.3372 11° North  Level Estimated
07:09PM 10.5954 -61.3372 11° North  Level Estimated